KLM37L EKCH-EHAM

Flight info

Callsign KLM37L
Flight time N/A
Altitude 36000
Route LANGO M611 ALASA DCT WANZA N872 KUBAT T200 BLUFA
Aircraft A21N/M-SDE3FGHIRWY/LB1

Departure

Time 2026-05-04 19:01
Airport Copenhagen Kastrup Airport (EKCH)

Arrival

Time N/A
Airport Amsterdam Airport Schiphol (EHAM)
Time Latitude Longitude Altitude Speed Heading
2026-05-04 18:18 55.62790 12.64347 19 ft 0 kts 300°
2026-05-04 18:46 55.62790 12.64349 19 ft 1 kts 301°
2026-05-04 18:46 55.62786 12.64374 19 ft 2 kts 256°
2026-05-04 18:47 55.62794 12.64397 19 ft 2 kts 216°
2026-05-04 18:47 55.62801 12.64404 19 ft 0 kts 194°
2026-05-04 18:47 55.62808 12.64406 19 ft 1 kts 192°
2026-05-04 18:47 55.62809 12.64407 19 ft 0 kts 192°
2026-05-04 18:48 55.62809 12.64406 19 ft 0 kts 192°
2026-05-04 18:51 55.62800 12.64403 19 ft 2 kts 192°
2026-05-04 18:51 55.62777 12.64394 19 ft 4 kts 193°
2026-05-04 18:51 55.62740 12.64375 19 ft 6 kts 201°
2026-05-04 18:52 55.62693 12.64338 19 ft 8 kts 205°
2026-05-04 18:52 55.62645 12.64299 18 ft 0 kts 204°
2026-05-04 18:52 55.62638 12.64293 18 ft 2 kts 205°
2026-05-04 18:53 55.62610 12.64269 17 ft 6 kts 208°
2026-05-04 18:53 55.62565 12.64221 17 ft 9 kts 210°
2026-05-04 18:53 55.62506 12.64256 15 ft 11 kts 126°
2026-05-04 18:53 55.62456 12.64379 15 ft 13 kts 125°
2026-05-04 18:54 55.62402 12.64466 16 ft 9 kts 185°
2026-05-04 18:54 55.62359 12.64438 15 ft 0 kts 197°
2026-05-04 18:54 55.62356 12.64436 15 ft 1 kts 195°
2026-05-04 18:54 55.62353 12.64435 15 ft 0 kts 195°
2026-05-04 18:55 55.62351 12.64434 15 ft 1 kts 194°
2026-05-04 18:55 55.62344 12.64431 15 ft 0 kts 196°
2026-05-04 18:55 55.62335 12.64427 15 ft 2 kts 196°
2026-05-04 18:56 55.62311 12.64415 15 ft 4 kts 196°
2026-05-04 18:56 55.62273 12.64394 15 ft 6 kts 198°
2026-05-04 18:56 55.62221 12.64363 15 ft 9 kts 201°
2026-05-04 18:56 55.62156 12.64313 15 ft 11 kts 208°
2026-05-04 18:57 55.62083 12.64249 15 ft 12 kts 204°
2026-05-04 18:57 55.62006 12.64189 18 ft 11 kts 205°
2026-05-04 18:57 55.61931 12.64124 19 ft 12 kts 206°
2026-05-04 18:57 55.61853 12.64048 21 ft 12 kts 216°
2026-05-04 18:58 55.61787 12.63956 22 ft 12 kts 208°
2026-05-04 18:58 55.61700 12.63948 22 ft 13 kts 172°
2026-05-04 18:58 55.61601 12.63962 21 ft 15 kts 184°
2026-05-04 18:58 55.61499 12.63883 21 ft 16 kts 220°
2026-05-04 18:59 55.61412 12.63746 20 ft 17 kts 222°
2026-05-04 18:59 55.61316 12.63595 20 ft 18 kts 222°
2026-05-04 18:59 55.61219 12.63445 20 ft 19 kts 220°
2026-05-04 18:59 55.61191 12.63403 19 ft 0 kts 221°
2026-05-04 19:00 55.61187 12.63397 19 ft 2 kts 221°
2026-05-04 19:00 55.61039 12.63168 19 ft 68 kts 221°
2026-05-04 19:00 55.60479 12.62301 16 ft 140 kts 222°
2026-05-04 19:00 55.59624 12.60990 185 ft 179 kts 224°
2026-05-04 19:01 55.58711 12.59530 1046 ft 176 kts 227°
2026-05-04 19:01 55.57865 12.58103 1924 ft 171 kts 230°
2026-05-04 19:01 55.57049 12.56648 2727 ft 166 kts 231°
2026-05-04 19:01 55.56285 12.55207 3459 ft 163 kts 233°
2026-05-04 19:02 55.55555 12.53744 4162 ft 161 kts 236°
2026-05-04 19:02 55.54966 12.52031 4657 ft 171 kts 247°
2026-05-04 19:02 55.54377 12.50088 5099 ft 187 kts 245°
2026-05-04 19:02 55.53713 12.48006 5489 ft 208 kts 243°
2026-05-04 19:03 55.52951 12.45705 5957 ft 228 kts 243°
2026-05-04 19:03 55.52115 12.43250 6491 ft 245 kts 242°
2026-05-04 19:03 55.51204 12.40612 7151 ft 259 kts 242°
2026-05-04 19:03 55.50258 12.37900 8039 ft 263 kts 241°
2026-05-04 19:04 55.49294 12.35156 8969 ft 264 kts 241°
2026-05-04 19:04 55.48349 12.32463 9859 ft 265 kts 240°
2026-05-04 19:04 55.47375 12.29691 10663 ft 272 kts 240°
2026-05-04 19:04 55.46349 12.26774 11115 ft 289 kts 240°
2026-05-04 19:05 55.45270 12.23712 11577 ft 304 kts 240°
2026-05-04 19:05 55.44141 12.20520 12296 ft 309 kts 240°
2026-05-04 19:05 55.43013 12.17337 13141 ft 312 kts 240°
2026-05-04 19:05 55.41872 12.14119 13920 ft 314 kts 240°
2026-05-04 19:06 55.40703 12.10825 14683 ft 318 kts 240°
2026-05-04 19:06 55.39543 12.07564 15420 ft 321 kts 240°
2026-05-04 19:06 55.38351 12.04221 16149 ft 324 kts 240°
2026-05-04 19:06 55.37160 12.00879 16846 ft 328 kts 240°
2026-05-04 19:07 55.35950 11.97490 17527 ft 331 kts 240°
2026-05-04 19:07 55.34728 11.94074 18180 ft 335 kts 240°
2026-05-04 19:07 55.33494 11.90627 18819 ft 338 kts 240°
2026-05-04 19:07 55.32233 11.87112 19460 ft 342 kts 240°
2026-05-04 19:08 55.30973 11.83605 20083 ft 345 kts 240°
2026-05-04 19:08 55.29699 11.80062 20691 ft 348 kts 240°
2026-05-04 19:08 55.28398 11.76453 21287 ft 351 kts 240°
2026-05-04 19:08 55.27099 11.72856 21871 ft 353 kts 240°
2026-05-04 19:09 55.25781 11.69230 22450 ft 356 kts 238°
2026-05-04 19:09 55.24092 11.66005 22949 ft 366 kts 222°
2026-05-04 19:09 55.21995 11.63512 23513 ft 370 kts 216°
2026-05-04 19:09 55.19773 11.61155 24056 ft 373 kts 215°
2026-05-04 19:10 55.17557 11.58853 24561 ft 376 kts 215°
2026-05-04 19:10 55.15343 11.56390 25069 ft 374 kts 223°
2026-05-04 19:10 55.13737 11.52955 25527 ft 368 kts 244°
2026-05-04 19:10 55.12810 11.48807 26096 ft 366 kts 253°
2026-05-04 19:11 55.12005 11.44604 26560 ft 368 kts 253°
2026-05-04 19:11 55.11190 11.40415 27000 ft 371 kts 252°
2026-05-04 19:11 55.10341 11.36127 27444 ft 372 kts 252°
2026-05-04 19:11 55.09489 11.31876 27838 ft 375 kts 251°
2026-05-04 19:12 55.08624 11.27584 27984 ft 376 kts 251°
2026-05-04 19:12 55.06878 11.19013 28822 ft 378 kts 251°
2026-05-04 19:12 55.05996 11.14710 29253 ft 379 kts 251°
2026-05-04 19:13 55.05100 11.10364 29615 ft 381 kts 251°
2026-05-04 19:13 55.04215 11.06047 29890 ft 382 kts 252°
2026-05-04 19:13 55.03708 11.01535 29909 ft 381 kts 265°
2026-05-04 19:13 55.03928 10.96974 29916 ft 385 kts 279°
2026-05-04 19:14 55.04647 10.92454 29923 ft 386 kts 284°
2026-05-04 19:14 55.06299 10.83565 29923 ft 389 kts 285°
2026-05-04 19:15 55.07427 10.74453 29923 ft 385 kts 269°
2026-05-04 19:15 55.07175 10.69834 29921 ft 383 kts 258°
2026-05-04 19:15 55.06412 10.65440 30248 ft 381 kts 248°
2026-05-04 19:15 55.05200 10.61406 30976 ft 375 kts 239°
2026-05-04 19:16 55.03647 10.57759 31107 ft 383 kts 234°
2026-05-04 19:16 55.01945 10.54122 31283 ft 388 kts 233°
2026-05-04 19:16 55.00212 10.50477 31454 ft 393 kts 233°
2026-05-04 19:16 54.98466 10.46815 31579 ft 399 kts 233°
2026-05-04 19:17 54.96682 10.43080 31703 ft 404 kts 233°